Time;durP1;ratioP1;P1;durP2;ratioP2;P2;SDS_P1;SDS_P2;PMS_P1;PMS_P2;Temp;Humidity;BMP_temperature;BMP_pressure;BME280_temperature;BME280_humidity;BME280_pressure;Samples;Min_cycle;Max_cycle;Signal;HPM_P1;HPM_P2
2024/01/16 00:01:06;;;;;;;0.40;0.40;;;1.10;99.90;;;;;;4410349;32;20117;-79
2024/01/16 00:03:32;;;;;;;0.62;0.62;;;1.00;99.90;;;;;;4409041;32;20568;-79
2024/01/16 00:05:57;;;;;;;0.30;0.30;;;0.90;99.90;;;;;;4409102;32;20074;-78
2024/01/16 00:08:23;;;;;;;0.40;0.40;;;0.90;99.90;;;;;;4410119;32;20131;-79
2024/01/16 00:10:50;;;;;;;0.50;0.50;;;0.80;99.90;;;;;;4412361;32;21139;-80
2024/01/16 00:13:16;;;;;;;0.40;0.40;;;0.70;99.90;;;;;;4408739;32;20074;-80
2024/01/16 00:15:42;;;;;;;0.40;0.40;;;0.50;99.90;;;;;;4410446;32;20216;-79
2024/01/16 00:18:08;;;;;;;0.40;0.40;;;0.50;99.90;;;;;;4409815;32;20538;-78
2024/01/16 00:20:34;;;;;;;0.40;0.40;;;0.40;99.90;;;;;;4410358;32;20123;-78
2024/01/16 00:23:00;;;;;;;0.30;0.30;;;0.30;99.90;;;;;;4409889;32;20486;-76
2024/01/16 00:25:25;;;;;;;0.35;0.35;;;0.40;99.90;;;;;;4408757;32;20073;-78
2024/01/16 00:27:51;;;;;;;0.40;0.40;;;0.30;99.90;;;;;;4407511;32;20144;-77
2024/01/16 00:30:17;;;;;;;0.30;0.30;;;0.30;99.90;;;;;;4406296;32;20094;-78
2024/01/16 00:32:43;;;;;;;0.40;0.40;;;0.40;99.90;;;;;;4407060;32;20518;-77
2024/01/16 00:35:09;;;;;;;0.32;0.32;;;0.40;99.90;;;;;;4409645;32;20081;-77
2024/01/16 00:37:36;;;;;;;0.40;0.40;;;0.40;99.90;;;;;;4411789;32;20069;-78
2024/01/16 00:40:04;;;;;;;0.30;0.30;;;0.40;99.90;;;;;;4411148;32;20061;-78
2024/01/16 00:42:30;;;;;;;0.37;0.37;;;0.40;99.90;;;;;;4412841;32;20069;-78
2024/01/16 00:44:55;;;;;;;0.37;0.37;;;0.20;99.90;;;;;;4412338;32;20074;-78
2024/01/16 00:47:21;;;;;;;0.50;0.50;;;0.10;99.90;;;;;;4412336;32;20131;-80
2024/01/16 00:49:47;;;;;;;0.30;0.30;;;0.20;99.90;;;;;;4411149;32;20065;-80
2024/01/16 00:52:12;;;;;;;9.63;3.30;;;0.20;99.90;;;;;;4411795;32;20418;-79
2024/01/16 00:54:39;;;;;;;0.40;0.40;;;0.10;99.90;;;;;;4411400;32;20220;-78
2024/01/16 00:57:05;;;;;;;0.30;0.30;;;0.10;99.90;;;;;;4416233;32;20081;-78
2024/01/16 00:59:31;;;;;;;0.60;0.60;;;0.10;99.90;;;;;;4405562;32;20095;-79
2024/01/16 01:01:56;;;;;;;0.40;0.40;;;0.00;99.90;;;;;;4412345;32;20133;-78
2024/01/16 01:04:22;;;;;;;0.40;0.40;;;0.00;99.90;;;;;;4412985;32;20124;-79
2024/01/16 01:06:47;;;;;;;0.30;0.30;;;0.00;99.90;;;;;;4415274;32;20077;-79
2024/01/16 01:09:13;;;;;;;0.40;0.40;;;0.00;99.90;;;;;;4412172;32;20065;-79
2024/01/16 01:11:39;;;;;;;0.37;0.37;;;0.00;99.90;;;;;;4413580;32;20090;-79
2024/01/16 01:14:04;;;;;;;0.40;0.40;;;0.10;99.90;;;;;;4409370;32;20098;-76
2024/01/16 01:16:30;;;;;;;0.40;0.40;;;0.20;99.90;;;;;;4411375;32;20501;-76
2024/01/16 01:18:56;;;;;;;0.50;0.50;;;0.30;99.90;;;;;;4411270;32;20545;-77
2024/01/16 01:21:21;;;;;;;0.43;0.43;;;0.30;99.90;;;;;;4413514;32;20069;-76
2024/01/16 01:23:47;;;;;;;0.40;0.40;;;0.40;99.90;;;;;;4409853;32;20533;-77
2024/01/16 01:26:13;;;;;;;0.35;0.35;;;0.40;99.90;;;;;;4413640;32;20128;-76
2024/01/16 01:28:40;;;;;;;0.40;0.40;;;0.30;99.90;;;;;;4411504;32;20083;-76
2024/01/16 01:31:08;;;;;;;0.40;0.40;;;0.30;99.90;;;;;;4410480;32;20073;-76
2024/01/16 01:33:33;;;;;;;0.50;0.50;;;0.20;99.90;;;;;;4408684;32;20643;-77
2024/01/16 01:35:59;;;;;;;0.40;0.40;;;0.20;99.90;;;;;;4411408;32;20073;-77
2024/01/16 01:38:24;;;;;;;0.40;0.40;;;0.10;99.90;;;;;;4411632;32;20120;-77
2024/01/16 01:40:49;;;;;;;1.05;1.02;;;0.20;99.90;;;;;;4412500;32;20240;-77
2024/01/16 01:43:20;;;;;;;0.40;0.40;;;0.10;99.90;;;;;;4410206;32;20778;-77
2024/01/16 01:45:56;;;;;;;0.40;0.40;;;0.10;99.90;;;;;;4411888;32;20124;-77
2024/01/16 01:48:23;;;;;;;0.40;0.40;;;0.00;99.90;;;;;;4411523;32;20089;-77
2024/01/16 01:50:48;;;;;;;1.65;1.00;;;0.00;99.90;;;;;;4411783;32;20561;-77
2024/01/16 01:53:14;;;;;;;2.37;1.45;;;0.00;99.90;;;;;;4410283;32;21265;-77
2024/01/16 01:55:40;;;;;;;0.40;0.40;;;0.00;99.90;;;;;;4410836;32;20081;-77
2024/01/16 01:58:06;;;;;;;0.62;0.62;;;-0.20;99.90;;;;;;4411979;32;20082;-77
2024/01/16 02:00:32;;;;;;;0.40;0.40;;;-0.40;99.90;;;;;;4411103;32;20073;-77
2024/01/16 02:02:57;;;;;;;0.43;0.43;;;-0.40;99.90;;;;;;4408767;32;20081;-76
2024/01/16 02:05:23;;;;;;;0.30;0.30;;;-0.40;99.90;;;;;;4408304;32;21077;-77
2024/01/16 02:07:48;;;;;;;0.40;0.40;;;-0.30;99.90;;;;;;4411281;32;20132;-77
2024/01/16 02:10:14;;;;;;;0.40;0.40;;;-0.40;99.90;;;;;;4410806;32;20078;-77
2024/01/16 02:12:39;;;;;;;0.40;0.40;;;-0.50;99.90;;;;;;4411132;32;20078;-77
2024/01/16 02:15:05;;;;;;;0.40;0.40;;;-0.60;99.90;;;;;;4410657;32;20434;-76
2024/01/16 02:17:31;;;;;;;15.60;1.67;;;-0.70;99.90;;;;;;4410238;32;20094;-77
2024/01/16 02:19:56;;;;;;;0.65;0.65;;;-0.70;99.90;;;;;;4402244;32;20082;-77
2024/01/16 02:22:27;;;;;;;0.40;0.40;;;-0.80;99.90;;;;;;4409961;32;20062;-76
2024/01/16 02:24:52;;;;;;;0.40;0.40;;;-0.80;99.90;;;;;;4410800;32;20132;-76
2024/01/16 02:27:20;;;;;;;0.68;0.68;;;-0.70;99.90;;;;;;4411366;32;20088;-76
2024/01/16 02:29:46;;;;;;;0.40;0.40;;;-0.60;99.90;;;;;;4414950;32;20076;-76
2024/01/16 02:32:12;;;;;;;0.70;0.70;;;-0.50;99.90;;;;;;4409594;32;20450;-77
2024/01/16 02:34:38;;;;;;;0.30;0.30;;;-0.40;99.90;;;;;;4409959;32;20110;-76
2024/01/16 02:37:04;;;;;;;0.50;0.50;;;-0.50;99.90;;;;;;4410508;32;20073;-76
2024/01/16 02:39:29;;;;;;;0.47;0.47;;;-0.40;99.90;;;;;;4409221;32;20093;-76
2024/01/16 02:41:56;;;;;;;0.35;0.35;;;-0.40;99.90;;;;;;4411327;32;20773;-76
2024/01/16 02:44:22;;;;;;;1.10;1.10;;;-0.40;99.90;;;;;;4410227;32;20078;-76
2024/01/16 02:46:47;;;;;;;0.30;0.30;;;-0.60;99.90;;;;;;4411290;32;20109;-76
2024/01/16 02:49:12;;;;;;;0.60;0.60;;;-0.50;99.90;;;;;;4409436;32;20128;-76
2024/01/16 02:51:38;;;;;;;0.40;0.40;;;-0.50;99.90;;;;;;4412671;32;20069;-77
2024/01/16 02:54:06;;;;;;;0.40;0.40;;;-0.50;99.90;;;;;;4410972;32;20069;-76
2024/01/16 02:56:31;;;;;;;0.30;0.30;;;-0.70;99.90;;;;;;4409418;32;20062;-77
2024/01/16 02:58:57;;;;;;;0.40;0.40;;;-0.50;99.90;;;;;;4412407;32;20077;-76
2024/01/16 03:01:22;;;;;;;0.40;0.40;;;-0.40;99.90;;;;;;4408693;32;20070;-76
2024/01/16 03:03:49;;;;;;;0.40;0.40;;;-0.50;99.90;;;;;;4411111;32;20129;-76
2024/01/16 03:06:24;;;;;;;0.40;0.40;;;-0.60;99.90;;;;;;4409656;32;20077;-76
2024/01/16 03:08:51;;;;;;;0.40;0.40;;;-0.30;99.90;;;;;;4411741;32;20586;-76
2024/01/16 03:11:16;;;;;;;0.30;0.30;;;-0.20;99.90;;;;;;4410193;32;20077;-76
2024/01/16 03:13:43;;;;;;;0.43;0.43;;;-0.20;99.90;;;;;;4412068;32;21595;-75
2024/01/16 03:16:09;;;;;;;23.67;1.30;;;-0.20;99.90;;;;;;4411547;32;20136;-76
2024/01/16 03:18:35;;;;;;;0.40;0.40;;;-0.10;99.90;;;;;;4404951;32;20427;-76
2024/01/16 03:21:03;;;;;;;0.40;0.40;;;-0.20;99.90;;;;;;4410590;32;20097;-77
2024/01/16 03:23:29;;;;;;;0.40;0.40;;;-0.20;99.90;;;;;;4410412;32;20082;-77
2024/01/16 03:25:54;;;;;;;0.30;0.30;;;-0.20;99.90;;;;;;4409584;32;20509;-76
2024/01/16 03:28:20;;;;;;;0.40;0.40;;;-0.30;99.90;;;;;;4409387;32;20061;-76
2024/01/16 03:30:46;;;;;;;0.30;0.30;;;-0.20;99.90;;;;;;4413689;32;20082;-76
2024/01/16 03:33:11;;;;;;;0.32;0.32;;;-0.20;99.90;;;;;;4408927;32;20501;-78
2024/01/16 03:35:37;;;;;;;0.30;0.30;;;-0.10;99.90;;;;;;4409416;32;20351;-78
2024/01/16 03:38:02;;;;;;;0.40;0.40;;;-0.20;99.90;;;;;;4410775;32;20426;-79
2024/01/16 03:40:28;;;;;;;0.50;0.50;;;-0.10;99.90;;;;;;4411711;32;20078;-79
2024/01/16 03:42:54;;;;;;;0.30;0.30;;;-0.20;99.90;;;;;;4409567;32;20078;-79
2024/01/16 03:45:20;;;;;;;0.40;0.40;;;-0.20;99.90;;;;;;4408833;32;20897;-78
2024/01/16 03:47:45;;;;;;;0.40;0.40;;;-0.20;99.90;;;;;;4410574;32;20120;-79
2024/01/16 03:50:11;;;;;;;0.40;0.40;;;-0.30;99.90;;;;;;4408930;32;20535;-77
2024/01/16 03:52:36;;;;;;;0.75;0.75;;;-0.30;99.90;;;;;;4410400;32;20089;-78
2024/01/16 03:55:02;;;;;;;0.40;0.40;;;-0.30;99.90;;;;;;4409326;32;20101;-78
2024/01/16 03:57:27;;;;;;;0.40;0.40;;;-0.30;99.90;;;;;;4410567;32;20128;-78
2024/01/16 03:59:53;;;;;;;0.40;0.40;;;-0.20;99.90;;;;;;4410472;32;20127;-79
2024/01/16 04:02:18;;;;;;;0.40;0.40;;;-0.30;99.90;;;;;;4409795;32;20061;-78
2024/01/16 04:04:44;;;;;;;0.40;0.40;;;-0.30;99.90;;;;;;4410687;32;20516;-78
2024/01/16 04:07:09;;;;;;;0.60;0.60;;;-0.20;99.90;;;;;;4409605;32;20100;-79
2024/01/16 04:09:34;;;;;;;0.40;0.40;;;-0.20;99.90;;;;;;4410106;32;20081;-79
2024/01/16 04:12:00;;;;;;;0.30;0.30;;;-0.20;99.90;;;;;;4410553;32;20477;-79
2024/01/16 04:14:26;;;;;;;0.40;0.40;;;-0.20;99.90;;;;;;4409670;32;20085;-78
2024/01/16 04:16:51;;;;;;;0.47;0.47;;;-0.20;99.90;;;;;;4409019;32;20070;-79
2024/01/16 04:19:17;;;;;;;0.40;0.40;;;-0.20;99.90;;;;;;4408898;32;20157;-77
2024/01/16 04:21:42;;;;;;;0.50;0.50;;;-0.20;99.90;;;;;;4409853;32;20705;-78
2024/01/16 04:24:08;;;;;;;0.75;0.75;;;-0.30;99.90;;;;;;4409940;32;20131;-79
2024/01/16 04:26:37;;;;;;;0.30;0.30;;;-0.30;99.90;;;;;;4410553;32;20122;-78
2024/01/16 04:29:03;;;;;;;0.40;0.40;;;-0.30;99.90;;;;;;4411334;32;20082;-78
2024/01/16 04:31:29;;;;;;;0.70;0.70;;;-0.30;99.90;;;;;;4409170;32;20177;-78
2024/01/16 04:33:54;;;;;;;0.40;0.40;;;-0.40;99.90;;;;;;4408437;32;20124;-78
2024/01/16 04:36:20;;;;;;;0.37;0.37;;;-0.40;99.90;;;;;;4407429;32;20081;-78
2024/01/16 04:38:45;;;;;;;0.40;0.40;;;-0.40;99.90;;;;;;4409163;32;20635;-77
2024/01/16 04:41:11;;;;;;;0.40;0.40;;;-0.40;99.90;;;;;;4409616;32;20086;-78
2024/01/16 04:43:36;;;;;;;0.40;0.40;;;-0.50;99.90;;;;;;4402894;32;20097;-77
2024/01/16 04:46:02;;;;;;;0.60;0.60;;;-0.60;99.90;;;;;;4409471;32;20131;-76
2024/01/16 04:48:28;;;;;;;0.40;0.40;;;-0.60;99.90;;;;;;4410193;32;20078;-77
2024/01/16 04:50:54;;;;;;;0.40;0.40;;;-0.60;99.90;;;;;;4407689;32;20141;-77
2024/01/16 04:53:19;;;;;;;0.93;0.93;;;-0.50;99.90;;;;;;4407135;32;20090;-77
2024/01/16 04:55:45;;;;;;;0.30;0.30;;;-0.50;99.90;;;;;;4410550;32;20106;-77
2024/01/16 04:58:10;;;;;;;0.40;0.40;;;-0.60;99.90;;;;;;4409378;32;20113;-76
2024/01/16 05:00:36;;;;;;;0.40;0.40;;;-0.70;99.90;;;;;;4406512;32;20537;-77
2024/01/16 05:03:04;;;;;;;0.45;0.45;;;-0.60;99.90;;;;;;4407929;32;21294;-76
2024/01/16 05:05:30;;;;;;;0.40;0.40;;;-0.60;99.90;;;;;;4407008;32;20416;-77
2024/01/16 05:07:55;;;;;;;1.20;0.77;;;-0.70;99.90;;;;;;4409704;32;20122;-77
2024/01/16 05:10:21;;;;;;;0.40;0.40;;;-0.60;99.90;;;;;;4408042;32;20082;-77
2024/01/16 05:12:47;;;;;;;0.50;0.50;;;-0.60;99.90;;;;;;4411424;32;20482;-77
2024/01/16 05:15:13;;;;;;;0.40;0.40;;;-0.60;99.90;;;;;;4408846;32;20065;-77
2024/01/16 05:17:38;;;;;;;0.40;0.40;;;-0.50;99.90;;;;;;4407662;32;20073;-76
2024/01/16 05:20:05;;;;;;;0.40;0.40;;;-0.40;99.90;;;;;;4409756;32;20069;-75
2024/01/16 05:22:31;;;;;;;0.40;0.40;;;-0.50;99.90;;;;;;4399382;32;20081;-76
2024/01/16 05:24:56;;;;;;;0.40;0.40;;;-0.50;99.90;;;;;;4412328;32;20140;-75
2024/01/16 05:27:22;;;;;;;0.40;0.40;;;-0.50;99.90;;;;;;4411749;32;20069;-76
2024/01/16 05:29:47;;;;;;;0.40;0.40;;;-0.60;99.90;;;;;;4409358;32;20093;-76
2024/01/16 05:32:14;;;;;;;0.40;0.40;;;-0.60;99.90;;;;;;4410259;32;20442;-76
2024/01/16 05:34:39;;;;;;;0.30;0.30;;;-0.60;99.90;;;;;;4410045;32;20073;-76
2024/01/16 05:37:05;;;;;;;0.40;0.40;;;-0.60;99.90;;;;;;4409980;32;20075;-75
2024/01/16 05:39:30;;;;;;;1.62;0.75;;;-0.60;99.90;;;;;;4411678;32;21269;-76
2024/01/16 05:41:56;;;;;;;0.45;0.45;;;-0.60;99.90;;;;;;4410330;32;20083;-76
2024/01/16 05:44:21;;;;;;;0.40;0.40;;;-0.70;99.90;;;;;;4411605;32;20080;-76
2024/01/16 05:46:47;;;;;;;0.40;0.40;;;-0.70;99.90;;;;;;4409716;32;20078;-76
2024/01/16 05:49:12;;;;;;;0.40;0.40;;;-0.80;99.90;;;;;;4411352;32;20168;-76
2024/01/16 05:51:38;;;;;;;0.40;0.40;;;-0.70;99.90;;;;;;4406504;32;20076;-76
2024/01/16 05:54:03;;;;;;;0.47;0.47;;;-0.70;99.90;;;;;;4414699;32;20098;-76
2024/01/16 05:56:31;;;;;;;0.40;0.40;;;-0.60;99.90;;;;;;4410013;32;20090;-76
2024/01/16 05:58:56;;;;;;;0.40;0.40;;;-0.70;99.90;;;;;;4411498;32;20069;-76
2024/01/16 06:01:22;;;;;;;0.40;0.40;;;-0.70;99.90;;;;;;4409378;32;20073;-77
2024/01/16 06:03:48;;;;;;;0.50;0.50;;;-0.70;99.90;;;;;;4409869;32;20501;-76
2024/01/16 06:06:14;;;;;;;0.40;0.40;;;-0.70;99.90;;;;;;4400014;32;20090;-77
2024/01/16 06:08:40;;;;;;;0.40;0.40;;;-0.70;99.90;;;;;;4410935;32;20094;-76
2024/01/16 06:11:05;;;;;;;0.40;0.40;;;-0.70;99.90;;;;;;4413156;32;20517;-76
2024/01/16 06:13:32;;;;;;;0.40;0.40;;;-0.80;99.90;;;;;;4400204;32;20084;-77
2024/01/16 06:15:58;;;;;;;0.40;0.40;;;-0.80;99.90;;;;;;4411987;32;20090;-75
2024/01/16 06:18:24;;;;;;;0.50;0.50;;;-0.80;99.90;;;;;;4408645;32;20565;-76
2024/01/16 06:20:49;;;;;;;0.40;0.40;;;-0.80;99.90;;;;;;4405819;32;20801;-77
2024/01/16 06:23:17;;;;;;;0.40;0.40;;;-0.80;99.90;;;;;;4406726;32;20184;-76
2024/01/16 06:25:43;;;;;;;0.32;0.32;;;-0.90;99.90;;;;;;4406563;32;20081;-77
2024/01/16 06:28:09;;;;;;;0.40;0.40;;;-0.90;99.90;;;;;;4401834;32;20062;-77
2024/01/16 06:30:34;;;;;;;1.35;0.75;;;-0.90;99.90;;;;;;4408200;32;20072;-76
2024/01/16 06:33:00;;;;;;;0.30;0.30;;;-0.80;99.90;;;;;;4406603;32;20876;-75
2024/01/16 06:35:26;;;;;;;0.40;0.40;;;-0.80;99.90;;;;;;4410380;32;20611;-76
2024/01/16 06:37:51;;;;;;;0.40;0.40;;;-0.80;99.90;;;;;;4413390;32;20090;-76
2024/01/16 06:40:17;;;;;;;0.37;0.37;;;-0.90;99.90;;;;;;4417291;32;20082;-76
2024/01/16 06:42:42;;;;;;;0.40;0.40;;;-0.90;99.90;;;;;;4414253;32;20484;-75
2024/01/16 06:45:08;;;;;;;0.40;0.40;;;-1.00;99.90;;;;;;4411119;32;20123;-76
2024/01/16 06:47:33;;;;;;;8.13;1.85;;;-1.00;99.90;;;;;;4409895;32;20069;-76
2024/01/16 06:49:59;;;;;;;0.40;0.40;;;-0.90;99.90;;;;;;4403689;32;20375;-77
2024/01/16 06:52:24;;;;;;;0.40;0.40;;;-0.90;99.90;;;;;;4399178;32;20905;-76
2024/01/16 06:54:51;;;;;;;0.50;0.50;;;-0.90;99.90;;;;;;4396324;32;20070;-77
2024/01/16 06:57:17;;;;;;;0.40;0.40;;;-0.80;99.90;;;;;;4392859;32;20158;-77
2024/01/16 06:59:42;;;;;;;0.43;0.43;;;-0.90;99.90;;;;;;4385937;32;20098;-78
2024/01/16 07:02:08;;;;;;;0.32;0.32;;;-0.80;99.90;;;;;;4386378;32;20794;-75
2024/01/16 07:04:33;;;;;;;0.37;0.37;;;-0.90;99.90;;;;;;4396056;32;20307;-76
2024/01/16 07:06:59;;;;;;;0.60;0.60;;;-1.00;99.90;;;;;;4401018;32;20093;-75
2024/01/16 07:09:25;;;;;;;0.50;0.50;;;-0.90;99.90;;;;;;4398343;32;20105;-77
2024/01/16 07:11:51;;;;;;;0.40;0.40;;;-0.80;99.90;;;;;;4389104;32;20520;-76
2024/01/16 07:14:16;;;;;;;1.55;1.15;;;-0.80;99.90;;;;;;4399064;32;20128;-74
2024/01/16 07:16:43;;;;;;;0.40;0.40;;;-0.80;99.90;;;;;;4399013;32;20403;-75
2024/01/16 07:19:08;;;;;;;0.50;0.50;;;-0.80;99.90;;;;;;4396016;32;20717;-76
2024/01/16 07:21:34;;;;;;;0.40;0.40;;;-0.70;99.90;;;;;;4389471;32;20123;-76
2024/01/16 07:23:59;;;;;;;0.40;0.40;;;-0.70;99.90;;;;;;4393084;32;20144;-73
2024/01/16 07:26:25;;;;;;;0.40;0.40;;;-0.70;99.90;;;;;;4394195;32;21635;-75
2024/01/16 07:28:50;;;;;;;0.62;0.62;;;-0.70;99.90;;;;;;4389582;32;20093;-74
2024/01/16 07:31:16;;;;;;;0.40;0.40;;;-0.60;99.90;;;;;;4399515;32;20149;-74
2024/01/16 07:33:42;;;;;;;0.70;0.70;;;-0.60;99.90;;;;;;4399909;32;20110;-75
2024/01/16 07:36:09;;;;;;;0.40;0.40;;;-0.50;99.90;;;;;;4399191;32;20065;-75
2024/01/16 07:38:36;;;;;;;0.40;0.40;;;-0.50;99.90;;;;;;4401754;32;20081;-74
2024/01/16 07:41:02;;;;;;;0.65;0.65;;;-0.50;99.90;;;;;;4400579;32;20597;-73
2024/01/16 07:43:29;;;;;;;0.40;0.40;;;-0.60;99.90;;;;;;4396709;32;20077;-74
2024/01/16 07:45:55;;;;;;;0.40;0.40;;;-0.50;99.90;;;;;;4399275;32;20600;-74
2024/01/16 07:48:22;;;;;;;0.40;0.40;;;-0.60;99.90;;;;;;4398218;32;20119;-76
2024/01/16 07:50:48;;;;;;;0.40;0.40;;;-0.50;99.90;;;;;;4392923;32;20158;-75
2024/01/16 07:53:15;;;;;;;0.43;0.43;;;-0.50;99.90;;;;;;4399714;32;20475;-75
2024/01/16 07:55:41;;;;;;;0.40;0.40;;;-0.40;99.90;;;;;;4398299;32;20121;-74
2024/01/16 07:58:06;;;;;;;0.40;0.40;;;-0.40;99.90;;;;;;4398765;32;20486;-75
2024/01/16 08:00:32;;;;;;;0.40;0.40;;;-0.30;99.90;;;;;;4397793;32;20076;-74
2024/01/16 08:02:57;;;;;;;0.45;0.45;;;-0.30;99.90;;;;;;4394413;32;20172;-74
2024/01/16 08:05:25;;;;;;;0.43;0.43;;;-0.20;99.90;;;;;;4403547;32;22023;-74
2024/01/16 08:07:51;;;;;;;0.50;0.50;;;-0.30;99.90;;;;;;4400419;32;20883;-75
2024/01/16 08:10:17;;;;;;;0.40;0.40;;;-0.40;99.90;;;;;;4393717;32;20713;-75
2024/01/16 08:12:43;;;;;;;0.40;0.40;;;-0.30;99.90;;;;;;4398938;32;20078;-77
2024/01/16 08:15:09;;;;;;;0.40;0.40;;;-0.10;99.90;;;;;;4398357;32;20517;-76
2024/01/16 08:17:34;;;;;;;0.50;0.50;;;-0.10;99.90;;;;;;4401663;32;20131;-76
2024/01/16 08:20:00;;;;;;;0.68;0.68;;;-0.20;99.90;;;;;;4403365;32;20382;-76
2024/01/16 08:22:25;;;;;;;0.32;0.32;;;-0.10;99.90;;;;;;4390683;32;20104;-78
2024/01/16 08:24:51;;;;;;;1.87;1.33;;;-0.10;99.90;;;;;;4396284;32;20482;-78
2024/01/16 08:27:17;;;;;;;0.40;0.40;;;0.00;99.90;;;;;;4395707;32;20089;-75
2024/01/16 08:29:42;;;;;;;0.50;0.50;;;0.00;99.90;;;;;;4389493;32;20174;-77
2024/01/16 08:32:08;;;;;;;0.40;0.40;;;0.10;99.90;;;;;;4380882;32;20482;-77
2024/01/16 08:34:33;;;;;;;0.40;0.40;;;0.10;99.90;;;;;;4391117;32;20081;-78
2024/01/16 08:36:59;;;;;;;0.37;0.37;;;0.20;99.90;;;;;;4398570;32;20106;-78
2024/01/16 08:39:25;;;;;;;0.30;0.30;;;0.20;99.90;;;;;;4396980;32;20080;-77
2024/01/16 08:41:51;;;;;;;0.40;0.40;;;0.30;99.90;;;;;;4386559;32;20301;-76
2024/01/16 08:44:16;;;;;;;0.40;0.40;;;0.30;99.90;;;;;;4389049;32;20081;-77
2024/01/16 08:46:42;;;;;;;0.70;0.70;;;0.30;99.90;;;;;;4389291;32;20085;-74
2024/01/16 08:49:09;;;;;;;0.32;0.32;;;0.40;99.90;;;;;;4372803;32;20089;-76
2024/01/16 08:51:34;;;;;;;0.40;0.40;;;0.10;99.90;;;;;;4369538;32;20101;-76
2024/01/16 08:54:00;;;;;;;0.40;0.40;;;-0.10;99.90;;;;;;4366314;32;20082;-76
2024/01/16 08:56:26;;;;;;;2.45;1.75;;;-0.20;99.90;;;;;;4369725;32;20106;-75
2024/01/16 08:58:51;;;;;;;0.47;0.47;;;-0.20;99.90;;;;;;4380536;32;20792;-76
2024/01/16 09:01:16;;;;;;;0.60;0.60;;;-0.20;99.90;;;;;;4376730;32;20527;-77
2024/01/16 09:03:43;;;;;;;0.98;0.98;;;-0.20;99.90;;;;;;4377206;32;20097;-75
2024/01/16 09:06:10;;;;;;;0.40;0.40;;;-0.20;99.90;;;;;;4367041;32;21041;-75
2024/01/16 09:08:35;;;;;;;0.40;0.40;;;-0.20;99.90;;;;;;4375561;32;20085;-76
2024/01/16 09:11:01;;;;;;;0.40;0.40;;;-0.20;99.90;;;;;;4376514;32;20210;-76
2024/01/16 09:13:26;;;;;;;0.50;0.50;;;-0.20;99.90;;;;;;4375399;32;20085;-76
2024/01/16 09:15:52;;;;;;;0.40;0.40;;;-0.30;99.90;;;;;;4379426;32;20191;-74
2024/01/16 09:18:18;;;;;;;0.40;0.40;;;-0.20;99.90;;;;;;4381544;32;20148;-76
2024/01/16 09:20:44;;;;;;;0.40;0.40;;;-0.20;99.90;;;;;;4375625;32;20089;-75
2024/01/16 09:23:09;;;;;;;0.40;0.40;;;-0.10;99.90;;;;;;4368757;32;20495;-76
2024/01/16 09:25:35;;;;;;;0.35;0.35;;;0.10;99.90;;;;;;4364150;32;20191;-76
2024/01/16 09:28:01;;;;;;;0.77;0.77;;;0.20;99.90;;;;;;4375199;32;20109;-77
2024/01/16 09:30:27;;;;;;;0.40;0.40;;;0.20;99.90;;;;;;4377599;32;20098;-76
2024/01/16 09:32:52;;;;;;;0.62;0.62;;;0.10;99.90;;;;;;4363327;32;20099;-75
2024/01/16 09:35:18;;;;;;;0.70;0.70;;;0.10;99.90;;;;;;4372951;32;20093;-76
2024/01/16 09:37:43;;;;;;;0.68;0.68;;;0.20;99.90;;;;;;4381887;32;20093;-76
2024/01/16 09:40:10;;;;;;;1.27;1.05;;;0.00;99.90;;;;;;4381198;32;20081;-76
2024/01/16 09:42:36;;;;;;;0.35;0.35;;;0.10;99.90;;;;;;4375864;32;20102;-77
2024/01/16 09:45:04;;;;;;;0.40;0.40;;;0.00;99.90;;;;;;4380203;32;22588;-76
2024/01/16 09:47:31;;;;;;;0.47;0.47;;;0.20;99.90;;;;;;4384147;32;20208;-77
2024/01/16 09:50:00;;;;;;;0.40;0.40;;;0.20;99.90;;;;;;4389287;32;20617;-78
2024/01/16 09:52:26;;;;;;;0.80;0.80;;;0.20;99.90;;;;;;4387253;32;20204;-79
2024/01/16 09:54:51;;;;;;;0.35;0.35;;;0.30;99.90;;;;;;4378465;32;20171;-79
2024/01/16 09:57:22;;;;;;;0.65;0.65;;;0.40;99.90;;;;;;4384555;32;21235;-76
2024/01/16 09:59:49;;;;;;;0.60;0.60;;;0.50;99.90;;;;;;4366176;32;20774;-77
2024/01/16 10:02:14;;;;;;;0.37;0.37;;;0.60;99.90;;;;;;4374498;32;20111;-76
2024/01/16 10:04:41;;;;;;;0.55;0.55;;;0.70;99.90;;;;;;4370440;32;20089;-77
2024/01/16 10:07:09;;;;;;;0.55;0.55;;;0.70;99.90;;;;;;4377254;32;20153;-76
2024/01/16 10:09:35;;;;;;;0.52;0.52;;;0.70;99.90;;;;;;4376997;32;20679;-76
2024/01/16 10:12:01;;;;;;;0.40;0.40;;;0.90;99.90;;;;;;4374833;32;20107;-77
2024/01/16 10:14:27;;;;;;;0.37;0.37;;;0.90;99.90;;;;;;4381493;32;20105;-77
2024/01/16 10:17:17;;;;;;;0.70;0.70;;;0.90;99.90;;;;;;4379638;32;20077;-76
2024/01/16 10:19:52;;;;;;;0.80;0.80;;;0.90;99.90;;;;;;4381262;32;20193;-77
2024/01/16 10:22:22;;;;;;;0.40;0.40;;;1.00;99.90;;;;;;4382886;32;20226;-78
2024/01/16 10:24:48;;;;;;;0.55;0.55;;;1.00;99.90;;;;;;4378177;32;20087;-75
2024/01/16 10:27:17;;;;;;;0.30;0.30;;;1.00;99.90;;;;;;4377430;32;20543;-76
2024/01/16 10:29:58;;;;;;;0.37;0.37;;;1.10;99.90;;;;;;4384804;32;20233;-77
2024/01/16 10:32:30;;;;;;;0.40;0.40;;;1.20;99.90;;;;;;4380101;32;20106;-79
2024/01/16 10:35:05;;;;;;;0.65;0.65;;;1.30;99.90;;;;;;4379448;32;20107;-75
2024/01/16 10:37:44;;;;;;;0.40;0.40;;;1.40;99.90;;;;;;4372690;32;20366;-75
2024/01/16 10:40:10;;;;;;;0.32;0.32;;;1.50;99.90;;;;;;4396784;32;20393;-76
2024/01/16 10:42:37;;;;;;;0.40;0.40;;;1.60;99.90;;;;;;4389466;32;20132;-78
2024/01/16 10:45:04;;;;;;;0.40;0.40;;;1.60;99.90;;;;;;4396284;32;20184;-77
2024/01/16 10:47:30;;;;;;;0.40;0.40;;;1.60;99.90;;;;;;4384884;32;20135;-77
2024/01/16 10:49:55;;;;;;;0.37;0.37;;;1.50;99.90;;;;;;4382115;32;20176;-77
2024/01/16 10:52:27;;;;;;;0.30;0.30;;;1.50;99.90;;;;;;4386186;32;20089;-76
2024/01/16 10:54:56;;;;;;;0.37;0.37;;;1.40;99.90;;;;;;4392511;32;20089;-76
2024/01/16 10:57:24;;;;;;;0.40;0.40;;;1.40;99.90;;;;;;4379455;32;21559;-75
2024/01/16 11:00:04;;;;;;;0.40;0.40;;;1.50;99.90;;;;;;4382710;32;20831;-76
2024/01/16 11:02:40;;;;;;;0.40;0.40;;;1.50;99.90;;;;;;4390078;32;21573;-75
2024/01/16 11:05:06;;;;;;;0.40;0.40;;;1.50;99.90;;;;;;4387738;32;20082;-75
2024/01/16 11:07:35;;;;;;;0.30;0.30;;;1.50;99.90;;;;;;4388041;32;20132;-77
2024/01/16 11:10:02;;;;;;;0.50;0.50;;;1.50;99.90;;;;;;4398066;32;20073;-76
2024/01/16 11:12:30;;;;;;;0.40;0.40;;;1.50;99.90;;;;;;4393990;32;20073;-77
2024/01/16 11:15:01;;;;;;;0.40;0.40;;;1.50;99.90;;;;;;4391932;32;20542;-78
2024/01/16 11:17:28;;;;;;;0.55;0.55;;;1.60;99.90;;;;;;4394231;32;20074;-76
2024/01/16 11:19:54;;;;;;;0.37;0.37;;;1.60;99.90;;;;;;4386170;32;20163;-79
2024/01/16 11:22:20;;;;;;;12.60;1.50;;;1.50;99.90;;;;;;4391389;32;20653;-77
2024/01/16 11:25:05;;;;;;;0.40;0.40;;;1.40;99.90;;;;;;4385880;32;20267;-76
2024/01/16 11:27:31;;;;;;;0.35;0.35;;;1.50;99.90;;;;;;4374477;32;20158;-76
2024/01/16 11:29:57;;;;;;;0.32;0.32;;;1.60;99.90;;;;;;4397639;32;20190;-77
2024/01/16 11:32:44;;;;;;;0.52;0.52;;;1.60;99.90;;;;;;4390637;32;20078;-75
2024/01/16 11:35:11;;;;;;;0.30;0.30;;;1.50;99.90;;;;;;4383920;32;20066;-78
2024/01/16 11:37:41;;;;;;;0.30;0.30;;;1.40;99.90;;;;;;4389047;32;20145;-76
2024/01/16 11:40:22;;;;;;;0.50;0.50;;;1.40;99.90;;;;;;4387436;32;20486;-76
2024/01/16 11:42:49;;;;;;;0.40;0.40;;;1.30;99.90;;;;;;4389042;32;20633;-77
2024/01/16 11:45:32;;;;;;;1.30;1.20;;;1.40;99.90;;;;;;4399331;32;20096;-76
2024/01/16 11:48:15;;;;;;;0.30;0.30;;;1.40;99.90;;;;;;4383306;32;20148;-76
2024/01/16 11:50:41;;;;;;;0.50;0.50;;;1.30;99.90;;;;;;4394882;32;100133;-76
2024/01/16 11:53:07;;;;;;;0.43;0.43;;;1.40;99.90;;;;;;4390465;32;20080;-77
2024/01/16 11:55:36;;;;;;;0.70;0.70;;;1.40;99.90;;;;;;4389803;32;20442;-74
2024/01/16 11:58:26;;;;;;;0.32;0.32;;;1.40;99.90;;;;;;4378548;32;20110;-76
2024/01/16 12:00:52;;;;;;;0.43;0.43;;;1.50;99.90;;;;;;4366436;32;20114;-75
2024/01/16 12:03:20;;;;;;;1.23;1.12;;;1.50;99.90;;;;;;4388980;32;20086;-76
2024/01/16 12:06:02;;;;;;;0.40;0.40;;;1.60;99.90;;;;;;4398831;32;20085;-76
2024/01/16 12:08:28;;;;;;;0.37;0.37;;;1.60;99.90;;;;;;4395747;32;20158;-76
2024/01/16 12:10:54;;;;;;;0.50;0.50;;;1.60;99.90;;;;;;4386566;32;20092;-75
2024/01/16 12:13:19;;;;;;;0.40;0.40;;;1.70;99.90;;;;;;4391897;32;20370;-75
2024/01/16 12:15:46;;;;;;;0.30;0.30;;;1.70;99.90;;;;;;4383050;32;20114;-74
2024/01/16 12:18:18;;;;;;;0.30;0.30;;;1.70;99.90;;;;;;4392007;32;20117;-76
2024/01/16 12:20:44;;;;;;;2.17;1.33;;;1.60;99.90;;;;;;4396394;32;20101;-76
2024/01/16 12:23:09;;;;;;;0.37;0.37;;;1.70;99.90;;;;;;4389492;32;20085;-74
2024/01/16 12:25:37;;;;;;;0.40;0.40;;;1.70;99.90;;;;;;4393984;32;20081;-77
2024/01/16 12:28:05;;;;;;;0.55;0.55;;;1.70;99.90;;;;;;4385586;32;20200;-76
2024/01/16 12:30:32;;;;;;;0.50;0.50;;;1.80;99.90;;;;;;4384700;32;20082;-76
2024/01/16 12:33:13;;;;;;;0.62;0.62;;;1.80;99.90;;;;;;4387867;32;21297;-77
2024/01/16 12:35:41;;;;;;;0.40;0.40;;;1.80;99.90;;;;;;4390241;32;20790;-76
2024/01/16 12:38:09;;;;;;;0.37;0.37;;;1.80;99.90;;;;;;4392935;32;20088;-76
2024/01/16 12:40:37;;;;;;;0.40;0.40;;;1.90;99.90;;;;;;4391147;32;20189;-76
2024/01/16 12:43:04;;;;;;;1.30;1.05;;;1.90;99.90;;;;;;4390887;32;20429;-77
2024/01/16 12:45:31;;;;;;;0.75;0.75;;;2.00;99.90;;;;;;4394216;32;20160;-76
2024/01/16 12:47:57;;;;;;;3.50;1.85;;;1.90;99.90;;;;;;4392284;32;20085;-76